sensor_id;sensor_type;location;lat;lon;timestamp;P1;durP1;ratioP1;P2;durP2;ratioP2
16015;SDS011;8112;53.592;10.184;2023-02-01T00:02:02;19.97;;;4.27;;
16015;SDS011;8112;53.592;10.184;2023-02-01T00:07:06;18.87;;;4.50;;
16015;SDS011;8112;53.592;10.184;2023-02-01T00:12:08;18.57;;;4.50;;
16015;SDS011;8112;53.592;10.184;2023-02-01T00:17:09;17.50;;;4.10;;
16015;SDS011;8112;53.592;10.184;2023-02-01T00:22:12;13.37;;;3.90;;
16015;SDS011;8112;53.592;10.184;2023-02-01T00:27:14;19.00;;;4.93;;
16015;SDS011;8112;53.592;10.184;2023-02-01T00:32:20;20.43;;;5.13;;
16015;SDS011;8112;53.592;10.184;2023-02-01T00:37:23;21.43;;;5.77;;
16015;SDS011;8112;53.592;10.184;2023-02-01T00:42:25;26.37;;;5.87;;
16015;SDS011;8112;53.592;10.184;2023-02-01T00:47:26;19.17;;;4.83;;
16015;SDS011;8112;53.592;10.184;2023-02-01T00:52:30;23.00;;;4.90;;
16015;SDS011;8112;53.592;10.184;2023-02-01T00:57:31;19.17;;;5.00;;
16015;SDS011;8112;53.592;10.184;2023-02-01T01:02:33;19.17;;;4.97;;
16015;SDS011;8112;53.592;10.184;2023-02-01T01:07:36;16.57;;;5.07;;
16015;SDS011;8112;53.592;10.184;2023-02-01T01:12:38;31.23;;;5.83;;
16015;SDS011;8112;53.592;10.184;2023-02-01T01:17:40;24.03;;;5.37;;
16015;SDS011;8112;53.592;10.184;2023-02-01T01:22:43;24.87;;;4.97;;
16015;SDS011;8112;53.592;10.184;2023-02-01T01:27:45;25.83;;;5.43;;
16015;SDS011;8112;53.592;10.184;2023-02-01T01:32:47;19.73;;;5.37;;
16015;SDS011;8112;53.592;10.184;2023-02-01T01:37:50;27.00;;;6.10;;
16015;SDS011;8112;53.592;10.184;2023-02-01T01:42:52;18.27;;;5.87;;
16015;SDS011;8112;53.592;10.184;2023-02-01T01:47:56;17.40;;;4.73;;
16015;SDS011;8112;53.592;10.184;2023-02-01T01:53:03;17.23;;;4.80;;
16015;SDS011;8112;53.592;10.184;2023-02-01T01:58:08;30.17;;;6.00;;
16015;SDS011;8112;53.592;10.184;2023-02-01T02:03:14;24.13;;;5.20;;
16015;SDS011;8112;53.592;10.184;2023-02-01T02:08:20;25.33;;;6.03;;
16015;SDS011;8112;53.592;10.184;2023-02-01T02:13:25;28.83;;;5.93;;
16015;SDS011;8112;53.592;10.184;2023-02-01T02:18:29;18.07;;;5.67;;
16015;SDS011;8112;53.592;10.184;2023-02-01T02:23:52;17.13;;;4.60;;
16015;SDS011;8112;53.592;10.184;2023-02-01T02:29:34;20.50;;;4.47;;
16015;SDS011;8112;53.592;10.184;2023-02-01T02:34:53;21.33;;;5.27;;
16015;SDS011;8112;53.592;10.184;2023-02-01T02:39:59;18.03;;;4.73;;
16015;SDS011;8112;53.592;10.184;2023-02-01T02:45:10;25.77;;;5.87;;
16015;SDS011;8112;53.592;10.184;2023-02-01T02:50:38;28.93;;;5.63;;
16015;SDS011;8112;53.592;10.184;2023-02-01T02:56:05;20.93;;;5.03;;
16015;SDS011;8112;53.592;10.184;2023-02-01T03:01:26;23.10;;;5.97;;
16015;SDS011;8112;53.592;10.184;2023-02-01T03:06:47;23.87;;;5.67;;
16015;SDS011;8112;53.592;10.184;2023-02-01T03:11:50;20.30;;;5.17;;
16015;SDS011;8112;53.592;10.184;2023-02-01T03:17:22;31.13;;;5.93;;
16015;SDS011;8112;53.592;10.184;2023-02-01T03:22:30;23.83;;;6.10;;
16015;SDS011;8112;53.592;10.184;2023-02-01T03:27:35;18.10;;;5.67;;
16015;SDS011;8112;53.592;10.184;2023-02-01T03:32:43;24.10;;;4.63;;
16015;SDS011;8112;53.592;10.184;2023-02-01T03:38:06;19.53;;;5.20;;
16015;SDS011;8112;53.592;10.184;2023-02-01T03:43:16;21.87;;;5.33;;
16015;SDS011;8112;53.592;10.184;2023-02-01T03:48:20;17.70;;;5.20;;
16015;SDS011;8112;53.592;10.184;2023-02-01T03:53:25;16.50;;;4.57;;
16015;SDS011;8112;53.592;10.184;2023-02-01T03:58:29;16.63;;;3.83;;
16015;SDS011;8112;53.592;10.184;2023-02-01T04:03:31;12.23;;;3.60;;
16015;SDS011;8112;53.592;10.184;2023-02-01T04:08:35;18.20;;;4.17;;
16015;SDS011;8112;53.592;10.184;2023-02-01T04:13:36;17.20;;;4.90;;
16015;SDS011;8112;53.592;10.184;2023-02-01T04:18:38;11.63;;;3.53;;
16015;SDS011;8112;53.592;10.184;2023-02-01T04:23:41;15.87;;;4.23;;
16015;SDS011;8112;53.592;10.184;2023-02-01T04:28:43;14.53;;;4.03;;
16015;SDS011;8112;53.592;10.184;2023-02-01T04:33:47;18.93;;;4.80;;
16015;SDS011;8112;53.592;10.184;2023-02-01T04:38:51;12.90;;;3.80;;
16015;SDS011;8112;53.592;10.184;2023-02-01T04:43:53;13.27;;;4.57;;
16015;SDS011;8112;53.592;10.184;2023-02-01T04:48:56;12.40;;;3.60;;
16015;SDS011;8112;53.592;10.184;2023-02-01T04:53:59;10.10;;;3.17;;
16015;SDS011;8112;53.592;10.184;2023-02-01T04:59:00;10.37;;;3.13;;
16015;SDS011;8112;53.592;10.184;2023-02-01T05:04:03;11.20;;;2.93;;
16015;SDS011;8112;53.592;10.184;2023-02-01T05:09:06;7.47;;;2.80;;
16015;SDS011;8112;53.592;10.184;2023-02-01T05:14:08;6.50;;;2.30;;
16015;SDS011;8112;53.592;10.184;2023-02-01T05:19:10;6.37;;;2.60;;
16015;SDS011;8112;53.592;10.184;2023-02-01T05:24:13;6.67;;;2.40;;
16015;SDS011;8112;53.592;10.184;2023-02-01T05:29:19;4.77;;;1.50;;
16015;SDS011;8112;53.592;10.184;2023-02-01T05:34:22;3.70;;;1.63;;
16015;SDS011;8112;53.592;10.184;2023-02-01T05:39:25;2.53;;;1.37;;
16015;SDS011;8112;53.592;10.184;2023-02-01T05:44:27;3.83;;;1.40;;
16015;SDS011;8112;53.592;10.184;2023-02-01T05:49:28;2.77;;;1.10;;
16015;SDS011;8112;53.592;10.184;2023-02-01T05:54:31;5.80;;;1.53;;
16015;SDS011;8112;53.592;10.184;2023-02-01T05:59:33;4.30;;;1.43;;
16015;SDS011;8112;53.592;10.184;2023-02-01T06:04:37;2.47;;;1.10;;
16015;SDS011;8112;53.592;10.184;2023-02-01T06:09:41;2.87;;;1.20;;
16015;SDS011;8112;53.592;10.184;2023-02-01T06:14:43;3.27;;;1.20;;
16015;SDS011;8112;53.592;10.184;2023-02-01T06:19:45;1.80;;;0.90;;
16015;SDS011;8112;53.592;10.184;2023-02-01T06:24:49;1.97;;;1.37;;
16015;SDS011;8112;53.592;10.184;2023-02-01T06:29:51;2.00;;;1.30;;
16015;SDS011;8112;53.592;10.184;2023-02-01T06:34:55;5.40;;;1.60;;
16015;SDS011;8112;53.592;10.184;2023-02-01T06:39:58;4.50;;;1.50;;
16015;SDS011;8112;53.592;10.184;2023-02-01T06:45:00;7.40;;;1.60;;
16015;SDS011;8112;53.592;10.184;2023-02-01T06:50:02;6.93;;;1.80;;
16015;SDS011;8112;53.592;10.184;2023-02-01T06:55:06;6.30;;;1.90;;
16015;SDS011;8112;53.592;10.184;2023-02-01T07:00:09;8.90;;;2.63;;
16015;SDS011;8112;53.592;10.184;2023-02-01T07:05:11;6.03;;;2.07;;
16015;SDS011;8112;53.592;10.184;2023-02-01T07:10:15;8.10;;;2.77;;
16015;SDS011;8112;53.592;10.184;2023-02-01T07:15:17;8.13;;;2.57;;
16015;SDS011;8112;53.592;10.184;2023-02-01T07:20:18;15.33;;;3.40;;
16015;SDS011;8112;53.592;10.184;2023-02-01T07:25:21;9.53;;;3.20;;
16015;SDS011;8112;53.592;10.184;2023-02-01T07:30:23;9.93;;;3.50;;
16015;SDS011;8112;53.592;10.184;2023-02-01T07:35:26;9.70;;;2.80;;
16015;SDS011;8112;53.592;10.184;2023-02-01T07:40:29;14.00;;;4.70;;
16015;SDS011;8112;53.592;10.184;2023-02-01T07:45:31;15.13;;;4.30;;
16015;SDS011;8112;53.592;10.184;2023-02-01T07:50:32;10.87;;;3.47;;
16015;SDS011;8112;53.592;10.184;2023-02-01T07:55:38;15.23;;;3.70;;
16015;SDS011;8112;53.592;10.184;2023-02-01T08:00:40;15.53;;;3.70;;
16015;SDS011;8112;53.592;10.184;2023-02-01T08:05:59;8.97;;;3.70;;
16015;SDS011;8112;53.592;10.184;2023-02-01T08:11:03;17.13;;;3.80;;
16015;SDS011;8112;53.592;10.184;2023-02-01T08:16:06;13.23;;;3.40;;
16015;SDS011;8112;53.592;10.184;2023-02-01T08:21:10;10.80;;;3.70;;
16015;SDS011;8112;53.592;10.184;2023-02-01T08:26:15;21.13;;;4.97;;
16015;SDS011;8112;53.592;10.184;2023-02-01T08:31:19;19.73;;;5.53;;
16015;SDS011;8112;53.592;10.184;2023-02-01T08:36:23;19.90;;;5.33;;
16015;SDS011;8112;53.592;10.184;2023-02-01T08:41:28;23.07;;;5.27;;
16015;SDS011;8112;53.592;10.184;2023-02-01T08:46:30;19.50;;;4.43;;
16015;SDS011;8112;53.592;10.184;2023-02-01T08:51:32;13.67;;;4.27;;
16015;SDS011;8112;53.592;10.184;2023-02-01T08:56:35;11.87;;;2.90;;
16015;SDS011;8112;53.592;10.184;2023-02-01T09:01:37;14.03;;;2.97;;
16015;SDS011;8112;53.592;10.184;2023-02-01T09:06:40;14.93;;;3.73;;
16015;SDS011;8112;53.592;10.184;2023-02-01T09:11:43;13.50;;;3.33;;
16015;SDS011;8112;53.592;10.184;2023-02-01T09:16:45;19.87;;;5.30;;
16015;SDS011;8112;53.592;10.184;2023-02-01T09:21:46;20.33;;;4.27;;
16015;SDS011;8112;53.592;10.184;2023-02-01T09:26:49;21.27;;;4.77;;
16015;SDS011;8112;53.592;10.184;2023-02-01T09:31:52;15.40;;;3.83;;
16015;SDS011;8112;53.592;10.184;2023-02-01T09:36:54;16.40;;;4.97;;
16015;SDS011;8112;53.592;10.184;2023-02-01T09:41:59;17.13;;;4.60;;
16015;SDS011;8112;53.592;10.184;2023-02-01T09:47:10;16.30;;;4.37;;
16015;SDS011;8112;53.592;10.184;2023-02-01T09:52:13;19.60;;;4.13;;
16015;SDS011;8112;53.592;10.184;2023-02-01T09:57:19;16.87;;;4.70;;
16015;SDS011;8112;53.592;10.184;2023-02-01T10:02:26;17.67;;;3.57;;
16015;SDS011;8112;53.592;10.184;2023-02-01T10:07:32;19.23;;;4.67;;
16015;SDS011;8112;53.592;10.184;2023-02-01T10:12:52;15.40;;;4.10;;
16015;SDS011;8112;53.592;10.184;2023-02-01T10:18:07;17.50;;;5.00;;
16015;SDS011;8112;53.592;10.184;2023-02-01T10:23:27;18.50;;;4.77;;
16015;SDS011;8112;53.592;10.184;2023-02-01T10:28:41;13.37;;;3.83;;
16015;SDS011;8112;53.592;10.184;2023-02-01T10:33:48;16.97;;;4.07;;
16015;SDS011;8112;53.592;10.184;2023-02-01T10:38:52;15.77;;;3.37;;
16015;SDS011;8112;53.592;10.184;2023-02-01T10:43:55;16.70;;;3.70;;
16015;SDS011;8112;53.592;10.184;2023-02-01T10:49:00;18.27;;;3.70;;
16015;SDS011;8112;53.592;10.184;2023-02-01T10:54:08;12.00;;;4.63;;
16015;SDS011;8112;53.592;10.184;2023-02-01T10:59:19;12.93;;;2.97;;
16015;SDS011;8112;53.592;10.184;2023-02-01T11:04:21;16.23;;;3.47;;
16015;SDS011;8112;53.592;10.184;2023-02-01T11:09:27;14.63;;;4.00;;
16015;SDS011;8112;53.592;10.184;2023-02-01T11:14:37;13.27;;;3.77;;
16015;SDS011;8112;53.592;10.184;2023-02-01T11:19:42;15.27;;;3.63;;
16015;SDS011;8112;53.592;10.184;2023-02-01T11:24:45;10.20;;;3.73;;
16015;SDS011;8112;53.592;10.184;2023-02-01T11:29:50;10.53;;;3.70;;
16015;SDS011;8112;53.592;10.184;2023-02-01T11:34:54;20.83;;;3.93;;
16015;SDS011;8112;53.592;10.184;2023-02-01T11:40:00;18.90;;;4.40;;
16015;SDS011;8112;53.592;10.184;2023-02-01T11:45:16;19.57;;;4.43;;
16015;SDS011;8112;53.592;10.184;2023-02-01T11:50:22;16.60;;;4.13;;
16015;SDS011;8112;53.592;10.184;2023-02-01T11:55:34;15.83;;;4.60;;
16015;SDS011;8112;53.592;10.184;2023-02-01T12:00:49;16.17;;;4.67;;
16015;SDS011;8112;53.592;10.184;2023-02-01T12:06:14;12.63;;;3.67;;
16015;SDS011;8112;53.592;10.184;2023-02-01T12:11:31;12.97;;;3.40;;
16015;SDS011;8112;53.592;10.184;2023-02-01T12:16:47;13.37;;;3.70;;
16015;SDS011;8112;53.592;10.184;2023-02-01T12:21:57;8.50;;;2.93;;
16015;SDS011;8112;53.592;10.184;2023-02-01T12:27:17;9.07;;;2.67;;
16015;SDS011;8112;53.592;10.184;2023-02-01T12:32:45;12.20;;;2.60;;
16015;SDS011;8112;53.592;10.184;2023-02-01T12:38:00;11.10;;;2.90;;
16015;SDS011;8112;53.592;10.184;2023-02-01T12:43:11;7.53;;;2.33;;
16015;SDS011;8112;53.592;10.184;2023-02-01T12:48:29;6.37;;;2.30;;
16015;SDS011;8112;53.592;10.184;2023-02-01T12:53:40;4.50;;;1.80;;
16015;SDS011;8112;53.592;10.184;2023-02-01T12:58:48;1.70;;;1.37;;
16015;SDS011;8112;53.592;10.184;2023-02-01T13:03:56;3.67;;;1.10;;
16015;SDS011;8112;53.592;10.184;2023-02-01T13:09:09;2.33;;;1.20;;
16015;SDS011;8112;53.592;10.184;2023-02-01T13:14:18;4.00;;;1.50;;
16015;SDS011;8112;53.592;10.184;2023-02-01T13:19:35;2.97;;;1.30;;
16015;SDS011;8112;53.592;10.184;2023-02-01T13:24:42;3.17;;;1.13;;
16015;SDS011;8112;53.592;10.184;2023-02-01T13:29:48;1.80;;;1.17;;
16015;SDS011;8112;53.592;10.184;2023-02-01T13:40:37;2.43;;;1.07;;
16015;SDS011;8112;53.592;10.184;2023-02-01T13:45:43;4.63;;;1.33;;
16015;SDS011;8112;53.592;10.184;2023-02-01T13:50:52;1.30;;;0.90;;
16015;SDS011;8112;53.592;10.184;2023-02-01T13:55:59;2.90;;;1.23;;
16015;SDS011;8112;53.592;10.184;2023-02-01T14:06:44;4.57;;;1.70;;
16015;SDS011;8112;53.592;10.184;2023-02-01T14:11:48;3.70;;;1.47;;
16015;SDS011;8112;53.592;10.184;2023-02-01T14:22:40;3.97;;;1.40;;
16015;SDS011;8112;53.592;10.184;2023-02-01T14:27:44;6.70;;;1.70;;
16015;SDS011;8112;53.592;10.184;2023-02-01T14:32:46;2.03;;;1.53;;
16015;SDS011;8112;53.592;10.184;2023-02-01T14:37:50;6.17;;;2.33;;
16015;SDS011;8112;53.592;10.184;2023-02-01T14:42:55;5.87;;;1.97;;
16015;SDS011;8112;53.592;10.184;2023-02-01T14:53:32;6.67;;;1.80;;
16015;SDS011;8112;53.592;10.184;2023-02-01T14:58:39;10.33;;;2.60;;
16015;SDS011;8112;53.592;10.184;2023-02-01T15:03:45;12.33;;;2.80;;
16015;SDS011;8112;53.592;10.184;2023-02-01T15:08:52;10.97;;;3.77;;
16015;SDS011;8112;53.592;10.184;2023-02-01T15:13:58;7.53;;;3.83;;
16015;SDS011;8112;53.592;10.184;2023-02-01T15:19:07;12.37;;;4.23;;
16015;SDS011;8112;53.592;10.184;2023-02-01T15:24:11;9.63;;;2.83;;
16015;SDS011;8112;53.592;10.184;2023-02-01T15:29:14;9.40;;;2.60;;
16015;SDS011;8112;53.592;10.184;2023-02-01T15:34:17;13.43;;;3.10;;
16015;SDS011;8112;53.592;10.184;2023-02-01T15:39:20;10.23;;;4.10;;
16015;SDS011;8112;53.592;10.184;2023-02-01T15:44:31;14.80;;;3.57;;
16015;SDS011;8112;53.592;10.184;2023-02-01T15:49:36;15.63;;;4.37;;
16015;SDS011;8112;53.592;10.184;2023-02-01T15:54:41;11.40;;;3.20;;
16015;SDS011;8112;53.592;10.184;2023-02-01T15:59:51;17.03;;;4.07;;
16015;SDS011;8112;53.592;10.184;2023-02-01T16:04:55;16.77;;;3.63;;
16015;SDS011;8112;53.592;10.184;2023-02-01T16:09:58;13.43;;;3.63;;
16015;SDS011;8112;53.592;10.184;2023-02-01T16:15:08;12.67;;;3.03;;
16015;SDS011;8112;53.592;10.184;2023-02-01T16:20:10;11.60;;;3.63;;
16015;SDS011;8112;53.592;10.184;2023-02-01T16:25:13;16.43;;;4.20;;
16015;SDS011;8112;53.592;10.184;2023-02-01T16:30:16;13.20;;;4.27;;
16015;SDS011;8112;53.592;10.184;2023-02-01T16:35:24;11.43;;;3.97;;
16015;SDS011;8112;53.592;10.184;2023-02-01T16:40:27;15.53;;;4.10;;
16015;SDS011;8112;53.592;10.184;2023-02-01T16:45:30;14.90;;;3.73;;
16015;SDS011;8112;53.592;10.184;2023-02-01T16:50:32;9.93;;;3.77;;
16015;SDS011;8112;53.592;10.184;2023-02-01T16:55:34;12.70;;;4.20;;
16015;SDS011;8112;53.592;10.184;2023-02-01T17:00:37;14.60;;;4.63;;
16015;SDS011;8112;53.592;10.184;2023-02-01T17:05:39;18.13;;;4.93;;
16015;SDS011;8112;53.592;10.184;2023-02-01T17:10:41;26.77;;;7.73;;
16015;SDS011;8112;53.592;10.184;2023-02-01T17:15:45;23.07;;;6.33;;
16015;SDS011;8112;53.592;10.184;2023-02-01T17:20:52;25.20;;;8.60;;
16015;SDS011;8112;53.592;10.184;2023-02-01T17:25:54;23.20;;;7.23;;
16015;SDS011;8112;53.592;10.184;2023-02-01T17:30:57;24.53;;;8.77;;
16015;SDS011;8112;53.592;10.184;2023-02-01T17:35:59;23.87;;;7.83;;
16015;SDS011;8112;53.592;10.184;2023-02-01T17:41:01;24.83;;;5.70;;
16015;SDS011;8112;53.592;10.184;2023-02-01T17:46:05;25.23;;;6.13;;
16015;SDS011;8112;53.592;10.184;2023-02-01T17:51:13;16.17;;;5.57;;
16015;SDS011;8112;53.592;10.184;2023-02-01T17:56:17;35.47;;;6.60;;
16015;SDS011;8112;53.592;10.184;2023-02-01T18:01:23;15.17;;;4.73;;
16015;SDS011;8112;53.592;10.184;2023-02-01T18:06:25;12.77;;;4.10;;
16015;SDS011;8112;53.592;10.184;2023-02-01T18:11:27;26.13;;;6.03;;
16015;SDS011;8112;53.592;10.184;2023-02-01T18:16:33;26.50;;;6.43;;
16015;SDS011;8112;53.592;10.184;2023-02-01T18:21:37;22.77;;;5.30;;
16015;SDS011;8112;53.592;10.184;2023-02-01T18:26:41;26.97;;;5.97;;
16015;SDS011;8112;53.592;10.184;2023-02-01T18:31:46;18.47;;;4.47;;
16015;SDS011;8112;53.592;10.184;2023-02-01T18:36:50;26.73;;;5.07;;
16015;SDS011;8112;53.592;10.184;2023-02-01T18:41:51;22.23;;;5.10;;
16015;SDS011;8112;53.592;10.184;2023-02-01T18:46:54;25.83;;;5.30;;
16015;SDS011;8112;53.592;10.184;2023-02-01T18:51:56;19.17;;;4.70;;
16015;SDS011;8112;53.592;10.184;2023-02-01T18:56:59;23.93;;;5.67;;
16015;SDS011;8112;53.592;10.184;2023-02-01T19:02:02;22.37;;;5.80;;
16015;SDS011;8112;53.592;10.184;2023-02-01T19:07:05;24.00;;;6.03;;
16015;SDS011;8112;53.592;10.184;2023-02-01T19:12:06;17.70;;;5.00;;
16015;SDS011;8112;53.592;10.184;2023-02-01T19:17:09;21.20;;;5.70;;
16015;SDS011;8112;53.592;10.184;2023-02-01T19:22:11;20.93;;;5.27;;
16015;SDS011;8112;53.592;10.184;2023-02-01T19:27:13;20.80;;;5.07;;
16015;SDS011;8112;53.592;10.184;2023-02-01T19:32:19;23.43;;;4.43;;
16015;SDS011;8112;53.592;10.184;2023-02-01T19:37:20;24.13;;;5.00;;
16015;SDS011;8112;53.592;10.184;2023-02-01T19:42:23;20.97;;;4.00;;
16015;SDS011;8112;53.592;10.184;2023-02-01T19:47:26;9.07;;;3.37;;
16015;SDS011;8112;53.592;10.184;2023-02-01T19:52:28;12.83;;;3.30;;
16015;SDS011;8112;53.592;10.184;2023-02-01T19:57:30;11.83;;;3.57;;
16015;SDS011;8112;53.592;10.184;2023-02-01T20:02:33;11.43;;;3.90;;
16015;SDS011;8112;53.592;10.184;2023-02-01T20:07:35;9.73;;;2.23;;
16015;SDS011;8112;53.592;10.184;2023-02-01T20:12:36;15.40;;;2.47;;
16015;SDS011;8112;53.592;10.184;2023-02-01T20:17:39;17.40;;;4.40;;
16015;SDS011;8112;53.592;10.184;2023-02-01T20:22:41;10.90;;;2.73;;
16015;SDS011;8112;53.592;10.184;2023-02-01T20:27:45;14.83;;;4.23;;
16015;SDS011;8112;53.592;10.184;2023-02-01T20:32:48;15.33;;;4.50;;
16015;SDS011;8112;53.592;10.184;2023-02-01T20:37:50;18.67;;;3.73;;
16015;SDS011;8112;53.592;10.184;2023-02-01T20:42:52;20.30;;;5.07;;
16015;SDS011;8112;53.592;10.184;2023-02-01T20:47:55;19.40;;;4.90;;
16015;SDS011;8112;53.592;10.184;2023-02-01T20:52:56;13.87;;;4.40;;
16015;SDS011;8112;53.592;10.184;2023-02-01T20:57:58;25.97;;;5.70;;
16015;SDS011;8112;53.592;10.184;2023-02-01T21:03:01;24.33;;;5.27;;
16015;SDS011;8112;53.592;10.184;2023-02-01T21:08:03;13.83;;;4.53;;
16015;SDS011;8112;53.592;10.184;2023-02-01T21:13:05;23.10;;;5.23;;
16015;SDS011;8112;53.592;10.184;2023-02-01T21:18:09;19.33;;;5.20;;
16015;SDS011;8112;53.592;10.184;2023-02-01T21:23:13;17.63;;;5.20;;
16015;SDS011;8112;53.592;10.184;2023-02-01T21:28:15;19.77;;;5.13;;
16015;SDS011;8112;53.592;10.184;2023-02-01T21:33:18;18.90;;;5.87;;
16015;SDS011;8112;53.592;10.184;2023-02-01T21:38:20;16.23;;;4.87;;
16015;SDS011;8112;53.592;10.184;2023-02-01T21:43:22;13.60;;;4.27;;
16015;SDS011;8112;53.592;10.184;2023-02-01T21:48:25;18.53;;;4.70;;
16015;SDS011;8112;53.592;10.184;2023-02-01T21:53:27;16.93;;;3.87;;
16015;SDS011;8112;53.592;10.184;2023-02-01T21:58:28;14.17;;;3.83;;
16015;SDS011;8112;53.592;10.184;2023-02-01T22:03:31;17.50;;;4.67;;
16015;SDS011;8112;53.592;10.184;2023-02-01T22:08:33;20.80;;;4.20;;
16015;SDS011;8112;53.592;10.184;2023-02-01T22:13:36;16.17;;;4.03;;
16015;SDS011;8112;53.592;10.184;2023-02-01T22:18:39;17.27;;;4.87;;
16015;SDS011;8112;53.592;10.184;2023-02-01T22:23:41;18.20;;;5.00;;
16015;SDS011;8112;53.592;10.184;2023-02-01T22:28:42;22.33;;;4.60;;
16015;SDS011;8112;53.592;10.184;2023-02-01T22:33:46;30.93;;;6.37;;
16015;SDS011;8112;53.592;10.184;2023-02-01T22:38:48;20.50;;;6.27;;
16015;SDS011;8112;53.592;10.184;2023-02-01T22:43:51;22.93;;;5.40;;
16015;SDS011;8112;53.592;10.184;2023-02-01T22:48:54;23.13;;;5.20;;
16015;SDS011;8112;53.592;10.184;2023-02-01T22:53:55;25.87;;;5.30;;
16015;SDS011;8112;53.592;10.184;2023-02-01T22:58:59;18.17;;;5.50;;
16015;SDS011;8112;53.592;10.184;2023-02-01T23:04:04;24.33;;;4.77;;
16015;SDS011;8112;53.592;10.184;2023-02-01T23:09:09;18.93;;;5.23;;
16015;SDS011;8112;53.592;10.184;2023-02-01T23:14:14;22.83;;;6.23;;
16015;SDS011;8112;53.592;10.184;2023-02-01T23:19:17;26.30;;;4.57;;
16015;SDS011;8112;53.592;10.184;2023-02-01T23:24:20;16.37;;;4.90;;
16015;SDS011;8112;53.592;10.184;2023-02-01T23:29:22;14.97;;;4.50;;
16015;SDS011;8112;53.592;10.184;2023-02-01T23:34:25;21.20;;;4.90;;
16015;SDS011;8112;53.592;10.184;2023-02-01T23:39:26;20.87;;;4.23;;
16015;SDS011;8112;53.592;10.184;2023-02-01T23:44:28;25.67;;;5.53;;
16015;SDS011;8112;53.592;10.184;2023-02-01T23:49:31;22.83;;;5.67;;
16015;SDS011;8112;53.592;10.184;2023-02-01T23:54:33;14.63;;;4.63;;
16015;SDS011;8112;53.592;10.184;2023-02-01T23:59:36;14.57;;;5.13;;
